Time;durP1;ratioP1;P1;durP2;ratioP2;P2;SDS_P1;SDS_P2;PMS_P1;PMS_P2;Temp;Humidity;BMP_temperature;BMP_pressure;BME280_temperature;BME280_humidity;BME280_pressure;Samples;Min_cycle;Max_cycle;Signal;HPM_P1;HPM_P2
2024/04/03 00:01:59;;;;;;;13.50;6.13;;;;;;;-146.04;100.00;56920.13;4973634;28;20622;-71
2024/04/03 00:04:24;;;;;;;9.80;5.72;;;;;;;-146.04;100.00;56920.13;4972766;28;20647;-71
2024/04/03 00:06:49;;;;;;;9.67;5.77;;;;;;;-146.04;100.00;56920.13;4973764;28;20195;-71
2024/04/03 00:09:15;;;;;;;11.53;6.13;;;;;;;-146.04;100.00;56920.13;4973864;28;20226;-70
2024/04/03 00:11:40;;;;;;;10.53;5.50;;;;;;;-146.04;100.00;56920.13;4972099;28;20193;-71
2024/04/03 00:14:05;;;;;;;6.77;5.73;;;;;;;-146.04;100.00;56920.13;4968113;28;20287;-71
2024/04/03 00:16:30;;;;;;;9.53;6.20;;;;;;;-146.04;100.00;56920.13;4983604;28;20240;-70
2024/04/03 00:18:56;;;;;;;13.00;7.60;;;;;;;-146.04;100.00;56920.13;4997535;28;20188;-70
2024/04/03 00:21:21;;;;;;;15.93;7.67;;;;;;;-146.04;100.00;56920.13;4998345;28;20173;-70
2024/04/03 00:23:46;;;;;;;15.55;7.30;;;;;;;-146.04;100.00;56920.13;4998501;28;20173;-70
2024/04/03 00:26:12;;;;;;;13.05;7.45;;;;;;;-146.04;100.00;56920.13;4995533;28;20195;-72
2024/04/03 00:28:37;;;;;;;13.80;8.07;;;;;;;-146.04;100.00;56920.13;4974171;28;20204;-72
2024/04/03 00:31:02;;;;;;;14.90;7.20;;;;;;;-146.04;100.00;56920.13;4967489;28;20535;-72
2024/04/03 00:33:28;;;;;;;14.73;7.70;;;;;;;-146.04;100.00;56920.13;4965932;28;20235;-71
2024/04/03 00:35:59;;;;;;;10.43;7.60;;;;;;;-146.04;100.00;56920.13;4973347;28;20200;-72
2024/04/03 00:38:25;;;;;;;13.32;7.38;;;;;;;-146.04;100.00;56920.13;4971769;28;20667;-72
2024/04/03 00:41:08;;;;;;;12.30;8.55;;;;;;;-146.04;100.00;56920.13;4972887;28;20176;-72
2024/04/03 00:43:33;;;;;;;12.30;7.90;;;;;;;-146.04;100.00;56920.13;4970679;28;20191;-73
2024/04/03 00:46:02;;;;;;;11.98;7.50;;;;;;;-146.04;100.00;56920.13;4972824;28;20188;-72
2024/04/03 00:48:30;;;;;;;14.30;8.18;;;;;;;-146.04;100.00;56920.13;4968123;28;20211;-73
2024/04/03 00:50:56;;;;;;;11.85;7.88;;;;;;;-146.04;100.00;56920.13;4962637;28;20855;-72
2024/04/03 00:53:23;;;;;;;14.73;7.38;;;;;;;-146.04;100.00;56920.13;4972945;28;20687;-73
2024/04/03 00:55:49;;;;;;;12.88;8.80;;;;;;;-146.04;100.00;56920.13;4973902;28;20185;-72
2024/04/03 00:58:14;;;;;;;12.73;8.00;;;;;;;-146.04;100.00;56920.13;4972404;28;20223;-73
2024/04/03 01:00:40;;;;;;;14.90;8.60;;;;;;;-146.04;100.00;56920.13;4972829;28;20912;-73
2024/04/03 01:03:06;;;;;;;12.20;7.22;;;;;;;-146.04;100.00;56920.13;4965826;28;20196;-73
2024/04/03 01:08:06;;;;;;;12.02;8.30;;;;;;;-146.04;100.00;56920.13;5073607;23;20255;-73
2024/04/03 01:10:32;;;;;;;16.77;8.07;;;;;;;-146.04;100.00;56920.13;4966227;28;20204;-73
2024/04/03 01:13:01;;;;;;;12.95;8.70;;;;;;;-146.04;100.00;56920.13;4966683;28;20541;-73
2024/04/03 01:15:27;;;;;;;14.73;8.75;;;;;;;-146.04;100.00;56920.13;4967766;28;20212;-74
2024/04/03 01:17:52;;;;;;;17.73;8.90;;;;;;;-146.04;100.00;56920.13;4981859;28;20208;-72
2024/04/03 01:20:18;;;;;;;13.13;9.00;;;;;;;-146.04;100.00;56920.13;4962487;28;20203;-72
2024/04/03 01:22:43;;;;;;;13.82;9.27;;;;;;;-146.04;100.00;56920.13;4964661;28;20188;-73
2024/04/03 01:25:09;;;;;;;16.13;9.67;;;;;;;-146.04;100.00;56920.13;4959765;28;20192;-73
2024/04/03 01:27:34;;;;;;;11.60;8.98;;;;;;;-146.04;100.00;56920.13;4962374;28;20212;-72
2024/04/03 01:29:59;;;;;;;15.63;9.75;;;;;;;-146.04;100.00;56920.13;4968345;28;20224;-72
2024/04/03 01:32:25;;;;;;;17.67;9.63;;;;;;;-146.04;100.00;56920.13;4965196;28;20219;-72
2024/04/03 01:34:50;;;;;;;13.45;9.98;;;;;;;-146.04;100.00;56920.13;4965096;28;20220;-72
2024/04/03 01:37:17;;;;;;;16.43;10.03;;;;;;;-146.04;100.00;56920.13;4960711;28;20219;-73
2024/04/03 01:39:44;;;;;;;20.27;10.52;;;;;;;-146.04;100.00;56920.13;4966197;28;20267;-72
2024/04/03 01:42:11;;;;;;;13.87;8.77;;;;;;;-146.04;100.00;56920.13;4969493;28;20196;-72
2024/04/03 01:44:36;;;;;;;13.85;9.32;;;;;;;-146.04;100.00;56920.13;4963109;28;20232;-73
2024/04/03 01:47:03;;;;;;;14.43;8.73;;;;;;;-146.04;100.00;56920.13;4960385;28;20203;-73
2024/04/03 01:49:28;;;;;;;20.95;9.95;;;;;;;-146.04;100.00;56920.13;4966952;28;20196;-73
2024/04/03 01:51:54;;;;;;;17.58;7.53;;;;;;;-146.04;100.00;56920.13;4971842;28;20195;-72
2024/04/03 01:54:19;;;;;;;11.70;6.80;;;;;;;-146.04;100.00;56920.13;4968637;28;20220;-72
2024/04/03 01:56:44;;;;;;;11.10;6.50;;;;;;;-146.04;100.00;56920.13;4967113;28;20212;-72
2024/04/03 01:59:09;;;;;;;10.83;6.00;;;;;;;-146.04;100.00;56920.13;4972297;28;20197;-72
2024/04/03 02:01:35;;;;;;;8.98;5.82;;;;;;;-146.04;100.00;56920.13;4976074;28;20284;-73
2024/04/03 02:04:00;;;;;;;8.48;5.85;;;;;;;-146.04;100.00;56920.13;4978364;28;20339;-71
2024/04/03 02:06:25;;;;;;;7.68;5.70;;;;;;;-146.04;100.00;56920.13;4987255;28;20227;-72
2024/04/03 02:08:51;;;;;;;6.50;5.47;;;;;;;-146.04;100.00;56920.13;4992784;28;20192;-71
2024/04/03 02:11:16;;;;;;;8.90;5.47;;;;;;;-146.04;100.00;56920.13;4969995;28;20554;-72
2024/04/03 02:13:42;;;;;;;10.68;5.07;;;;;;;-146.04;100.00;56920.13;4974029;28;20211;-73
2024/04/03 02:16:07;;;;;;;7.60;5.20;;;;;;;-146.04;100.00;56920.13;4976649;28;20738;-73
2024/04/03 02:18:32;;;;;;;8.98;5.10;;;;;;;-146.04;100.00;56920.13;4968089;28;20659;-72
2024/04/03 02:20:58;;;;;;;8.77;4.43;;;;;;;-146.04;100.00;56920.13;4961375;28;20792;-73
2024/04/03 02:23:23;;;;;;;7.10;4.50;;;;;;;-146.04;100.00;56920.13;4964435;28;20188;-72
2024/04/03 02:25:48;;;;;;;5.80;3.90;;;;;;;-146.04;100.00;56920.13;4968011;28;20184;-73
2024/04/03 02:28:13;;;;;;;8.60;4.63;;;;;;;-146.04;100.00;56920.13;4958898;28;20200;-73
2024/04/03 02:30:39;;;;;;;7.23;3.83;;;;;;;-146.04;100.00;56920.13;4957767;28;20184;-73
2024/04/03 02:33:04;;;;;;;8.57;3.93;;;;;;;-146.04;100.00;56920.13;4989367;28;20223;-71
2024/04/03 02:35:29;;;;;;;8.57;4.20;;;;;;;-146.04;100.00;56920.13;4992517;28;20212;-72
2024/04/03 02:37:55;;;;;;;8.87;4.27;;;;;;;-146.04;100.00;56920.13;4985298;28;20208;-71
2024/04/03 02:40:20;;;;;;;8.53;3.10;;;;;;;-146.04;100.00;56920.13;4994492;28;20165;-71
2024/04/03 02:42:45;;;;;;;7.22;3.00;;;;;;;-146.04;100.00;56920.13;4983677;28;20316;-73
2024/04/03 02:45:11;;;;;;;6.20;3.80;;;;;;;-146.04;100.00;56920.13;4968285;28;20399;-73
2024/04/03 02:47:36;;;;;;;7.67;3.40;;;;;;;-146.04;100.00;56920.13;4971877;28;20228;-72
2024/04/03 02:50:02;;;;;;;3.60;2.63;;;;;;;-146.04;100.00;56920.13;4974463;28;20267;-73
2024/04/03 02:52:27;;;;;;;11.33;4.10;;;;;;;-146.04;100.00;56920.13;4969069;28;20189;-73
2024/04/03 02:54:52;;;;;;;8.97;4.17;;;;;;;-146.04;100.00;56920.13;4966457;28;20205;-72
2024/04/03 02:57:17;;;;;;;6.43;2.80;;;;;;;-146.04;100.00;56920.13;4967352;28;20687;-73
2024/04/03 02:59:43;;;;;;;5.33;3.40;;;;;;;-146.04;100.00;56920.13;4969309;28;20176;-72
2024/04/03 03:02:08;;;;;;;9.33;3.57;;;;;;;-146.04;100.00;56920.13;4964542;28;20212;-73
2024/04/03 03:04:41;;;;;;;9.47;3.23;;;;;;;-146.04;100.00;56920.13;4971617;28;20263;-72
2024/04/03 03:07:08;;;;;;;5.27;2.57;;;;;;;-146.04;100.00;56920.13;4972614;28;20243;-72
2024/04/03 03:09:34;;;;;;;7.83;2.60;;;;;;;-146.04;100.00;56920.13;4971580;28;20312;-73
2024/04/03 03:11:59;;;;;;;7.03;2.60;;;;;;;-146.04;100.00;56920.13;4971835;28;20220;-72
2024/04/03 03:14:24;;;;;;;7.40;3.07;;;;;;;-146.04;100.00;56920.13;4970762;28;20595;-72
2024/04/03 03:16:50;;;;;;;4.03;2.30;;;;;;;-146.04;100.00;56920.13;4966608;28;20216;-72
2024/04/03 03:19:15;;;;;;;3.30;2.60;;;;;;;-146.04;100.00;56920.13;4965249;28;20196;-73
2024/04/03 03:21:40;;;;;;;4.03;2.77;;;;;;;-146.04;100.00;56920.13;4963422;28;20191;-73
2024/04/03 03:24:06;;;;;;;3.70;2.70;;;;;;;-146.04;100.00;56920.13;4964120;28;20185;-72
2024/04/03 03:26:31;;;;;;;3.97;2.08;;;;;;;-146.04;100.00;56920.13;4968543;28;20208;-72
2024/04/03 03:28:56;;;;;;;6.88;2.65;;;;;;;-146.04;100.00;56920.13;4972642;28;20188;-72
2024/04/03 03:31:22;;;;;;;3.53;2.10;;;;;;;-146.04;100.00;56920.13;4970803;28;20196;-73
2024/04/03 03:33:47;;;;;;;7.13;2.65;;;;;;;-146.04;100.00;56920.13;4969728;28;20247;-73
2024/04/03 03:36:12;;;;;;;3.60;2.28;;;;;;;-146.04;100.00;56920.13;4969752;28;20185;-72
2024/04/03 03:38:38;;;;;;;5.85;2.35;;;;;;;-146.04;100.00;56920.13;4964366;28;20191;-73
2024/04/03 03:41:04;;;;;;;4.47;2.08;;;;;;;-146.04;100.00;56920.13;4966741;28;20576;-73
2024/04/03 03:43:29;;;;;;;5.60;2.83;;;;;;;-146.04;100.00;56920.13;4969120;28;20194;-73
2024/04/03 03:45:54;;;;;;;6.50;2.17;;;;;;;-146.04;100.00;56920.13;4962072;28;20227;-72
2024/04/03 03:53:56;;;;;;;3.03;2.03;;;;;;;-146.04;100.00;56920.13;4969882;28;20307;-73
2024/04/03 03:56:21;;;;;;;8.40;2.60;;;;;;;-146.04;100.00;56920.13;4963150;28;20287;-72
2024/04/03 03:58:47;;;;;;;5.07;2.07;;;;;;;-146.04;100.00;56920.13;4965686;28;20196;-73
2024/04/03 04:01:12;;;;;;;6.63;2.60;;;;;;;-146.04;100.00;56920.13;4965838;28;20180;-73
2024/04/03 04:03:37;;;;;;;5.80;2.20;;;;;;;-146.04;100.00;56920.13;4966871;28;20181;-73
2024/04/03 04:06:03;;;;;;;8.67;3.47;;;;;;;-146.04;100.00;56920.13;4964339;28;20231;-72
2024/04/03 04:08:28;;;;;;;3.77;2.47;;;;;;;-146.04;100.00;56920.13;4969214;28;20279;-72
2024/04/03 04:10:55;;;;;;;6.07;2.13;;;;;;;-146.04;100.00;56920.13;4960000;28;20216;-73
2024/04/03 04:13:20;;;;;;;8.33;2.67;;;;;;;-146.04;100.00;56920.13;4965685;28;20444;-72
2024/04/03 04:15:45;;;;;;;5.63;2.70;;;;;;;-146.04;100.00;56920.13;4971230;28;20569;-73
2024/04/03 04:18:11;;;;;;;5.13;2.37;;;;;;;-146.04;100.00;56920.13;4966609;28;20688;-72
2024/04/03 04:20:37;;;;;;;8.70;2.93;;;;;;;-146.04;100.00;56920.13;4971518;28;20640;-72
2024/04/03 04:23:03;;;;;;;8.40;2.60;;;;;;;-146.04;100.00;56920.13;4967336;28;20247;-72
2024/04/03 04:25:28;;;;;;;6.33;2.90;;;;;;;-146.04;100.00;56920.13;4965891;28;20271;-73
2024/04/03 04:27:53;;;;;;;7.17;2.20;;;;;;;-146.04;100.00;56920.13;4972341;28;20682;-73
2024/04/03 04:30:19;;;;;;;6.80;2.57;;;;;;;-146.04;100.00;56920.13;4964729;28;20231;-73
2024/04/03 04:32:44;;;;;;;3.77;2.27;;;;;;;-146.04;100.00;56920.13;4959712;28;20235;-72
2024/04/03 04:35:09;;;;;;;7.50;2.80;;;;;;;-146.04;100.00;56920.13;4963501;28;20740;-73
2024/04/03 04:37:35;;;;;;;4.43;2.27;;;;;;;-146.04;100.00;56920.13;4969693;28;20762;-73
2024/04/03 04:40:00;;;;;;;4.60;2.37;;;;;;;-146.04;100.00;56920.13;4967766;28;20271;-72
2024/04/03 04:42:26;;;;;;;7.43;2.80;;;;;;;-146.04;100.00;56920.13;4962483;28;20180;-72
2024/04/03 04:44:51;;;;;;;5.75;2.38;;;;;;;-146.04;100.00;56920.13;4964737;28;20538;-73
2024/04/03 04:47:16;;;;;;;5.17;2.50;;;;;;;-146.04;100.00;56920.13;4968090;28;20302;-73
2024/04/03 04:49:42;;;;;;;4.70;2.10;;;;;;;-146.04;100.00;56920.13;4958606;28;20679;-73
2024/04/03 04:52:07;;;;;;;5.07;2.43;;;;;;;-146.04;100.00;56920.13;4960299;28;20192;-73
2024/04/03 04:54:32;;;;;;;5.10;2.37;;;;;;;-146.04;100.00;56920.13;4971699;28;20200;-72
2024/04/03 04:56:58;;;;;;;5.73;2.70;;;;;;;-146.04;100.00;56920.13;4969166;28;20223;-73
2024/04/03 04:59:23;;;;;;;9.87;2.47;;;;;;;-146.04;100.00;56920.13;4961636;28;20188;-73
2024/04/03 05:01:49;;;;;;;4.17;2.03;;;;;;;-146.04;100.00;56920.13;4964010;28;20677;-73
2024/04/03 05:04:14;;;;;;;8.87;3.17;;;;;;;-146.04;100.00;56920.13;4968564;28;20196;-73
2024/04/03 05:06:39;;;;;;;10.57;2.37;;;;;;;-146.04;100.00;56920.13;4970781;28;20287;-73
2024/04/03 05:09:06;;;;;;;7.90;2.50;;;;;;;-146.04;100.00;56920.13;4969496;28;20662;-73
2024/04/03 05:11:32;;;;;;;3.70;2.00;;;;;;;-146.04;100.00;56920.13;4960589;28;20188;-73
2024/04/03 05:13:57;;;;;;;4.23;2.63;;;;;;;-146.04;100.00;56920.13;4966839;28;20721;-73
2024/04/03 05:16:23;;;;;;;8.97;2.63;;;;;;;-146.04;100.00;56920.13;4965580;28;20218;-73
2024/04/03 05:18:50;;;;;;;3.67;2.00;;;;;;;-146.04;100.00;56920.13;4966286;28;20199;-73
2024/04/03 05:21:17;;;;;;;6.83;2.40;;;;;;;-146.04;100.00;56920.13;4964958;28;20223;-73
2024/04/03 05:23:48;;;;;;;5.10;2.73;;;;;;;-146.04;100.00;56920.13;4966587;28;20192;-73
2024/04/03 05:26:15;;;;;;;6.60;3.58;;;;;;;-146.04;100.00;56920.13;4972198;28;20192;-73
2024/04/03 05:28:40;;;;;;;5.30;2.73;;;;;;;-146.04;100.00;56920.13;4965533;28;20184;-73
2024/04/03 05:31:11;;;;;;;8.13;2.83;;;;;;;-146.04;100.00;56920.13;4972196;28;20243;-73
2024/04/03 05:33:37;;;;;;;5.17;2.70;;;;;;;-146.04;100.00;56920.13;4961135;28;20220;-73
2024/04/03 05:36:05;;;;;;;7.70;2.90;;;;;;;-146.04;100.00;56920.13;4971328;28;20216;-72
2024/04/03 05:38:31;;;;;;;10.17;2.50;;;;;;;-146.04;100.00;56920.13;4960713;28;20192;-73
2024/04/03 05:40:56;;;;;;;7.17;2.27;;;;;;;-146.04;100.00;56920.13;4969261;28;20580;-73
2024/04/03 05:43:26;;;;;;;8.23;2.80;;;;;;;-146.04;100.00;56920.13;4964497;28;20195;-73
2024/04/03 05:45:53;;;;;;;10.67;3.10;;;;;;;-146.04;100.00;56920.13;4963173;28;20224;-72
2024/04/03 05:48:20;;;;;;;8.83;2.20;;;;;;;-146.04;100.00;56920.13;4965434;28;20208;-73
2024/04/03 05:50:46;;;;;;;5.27;2.60;;;;;;;-146.04;100.00;56920.13;4966565;28;20195;-73
2024/04/03 05:53:11;;;;;;;12.15;3.00;;;;;;;-146.04;100.00;56920.13;4970608;28;20188;-72
2024/04/03 05:55:36;;;;;;;5.20;2.33;;;;;;;-146.04;100.00;56920.13;4965303;28;20188;-73
2024/04/03 05:58:02;;;;;;;4.83;2.37;;;;;;;-146.04;100.00;56920.13;4965719;28;20575;-73
2024/04/03 06:00:28;;;;;;;6.43;2.63;;;;;;;-146.04;100.00;56920.13;4960044;28;20192;-73
2024/04/03 06:02:53;;;;;;;7.33;2.80;;;;;;;-146.04;100.00;56920.13;4961707;28;20189;-73
2024/04/03 06:05:19;;;;;;;6.20;2.63;;;;;;;-146.04;100.00;56920.13;4964190;28;20214;-73
2024/04/03 06:07:48;;;;;;;8.40;2.97;;;;;;;-146.04;100.00;56920.13;4968311;28;20259;-72
2024/04/03 06:10:15;;;;;;;8.00;3.20;;;;;;;-146.04;100.00;56920.13;4969329;28;20195;-73
2024/04/03 06:12:40;;;;;;;9.75;3.03;;;;;;;-146.04;100.00;56920.13;4968601;28;20184;-73
2024/04/03 06:15:06;;;;;;;8.03;4.63;;;;;;;-146.04;100.00;56920.13;4971200;28;20212;-73
2024/04/03 06:17:32;;;;;;;7.53;4.00;;;;;;;-146.04;100.00;56920.13;4965745;28;20308;-73
2024/04/03 06:19:57;;;;;;;7.45;3.55;;;;;;;-146.04;100.00;56920.13;4968574;28;20212;-73
2024/04/03 06:22:22;;;;;;;8.13;3.13;;;;;;;-146.04;100.00;56920.13;4973475;28;20263;-73
2024/04/03 06:24:48;;;;;;;5.93;3.07;;;;;;;-146.04;100.00;56920.13;4968630;28;20192;-73
2024/04/03 06:27:13;;;;;;;9.13;3.67;;;;;;;-146.04;100.00;56920.13;4975288;28;20211;-73
2024/04/03 06:29:38;;;;;;;7.15;3.20;;;;;;;-146.04;100.00;56920.13;4965870;28;20254;-74
2024/04/03 06:32:06;;;;;;;8.40;2.75;;;;;;;-146.04;100.00;56920.13;4973956;28;20651;-73
2024/04/03 06:34:31;;;;;;;11.77;4.05;;;;;;;-146.04;100.00;56920.13;4967256;28;20280;-72
2024/04/03 06:36:56;;;;;;;7.80;3.70;;;;;;;-146.04;100.00;56920.13;4970339;28;20235;-72
2024/04/03 06:39:22;;;;;;;8.10;2.90;;;;;;;-146.04;100.00;56920.13;4963593;28;20271;-72
2024/04/03 06:41:47;;;;;;;6.15;3.03;;;;;;;-146.04;100.00;56920.13;4970880;28;20192;-73
2024/04/03 06:44:13;;;;;;;15.52;3.30;;;;;;;-146.04;100.00;56920.13;4968225;28;20267;-72
2024/04/03 06:46:38;;;;;;;5.70;3.15;;;;;;;-146.04;100.00;56920.13;4970880;28;20294;-72
2024/04/03 06:49:03;;;;;;;6.78;2.80;;;;;;;-146.04;100.00;56920.13;4972995;28;20206;-73
2024/04/03 06:51:29;;;;;;;3.80;2.05;;;;;;;-146.04;100.00;56920.13;4972101;28;20195;-73
2024/04/03 06:53:54;;;;;;;7.10;3.40;;;;;;;-146.04;100.00;56920.13;4970870;28;20237;-73
2024/04/03 06:56:20;;;;;;;4.05;2.40;;;;;;;-146.04;100.00;56920.13;4971718;28;20342;-72
2024/04/03 06:58:45;;;;;;;14.30;3.47;;;;;;;-146.04;100.00;56920.13;4957820;28;20397;-72
2024/04/03 07:01:12;;;;;;;10.02;3.40;;;;;;;-146.04;100.00;56920.13;4969747;28;20239;-72
2024/04/03 07:03:38;;;;;;;6.88;2.97;;;;;;;-146.04;100.00;56920.13;4960324;28;20189;-71
2024/04/03 07:06:05;;;;;;;4.25;2.20;;;;;;;-146.04;100.00;56920.13;4971574;28;20196;-71
2024/04/03 07:08:32;;;;;;;7.80;2.30;;;;;;;-146.04;100.00;56920.13;4970030;28;20552;-71
2024/04/03 07:10:57;;;;;;;7.00;2.30;;;;;;;-146.04;100.00;56920.13;4972075;28;20196;-73
2024/04/03 07:13:23;;;;;;;3.95;2.45;;;;;;;-146.04;100.00;56920.13;4968297;28;20257;-73
2024/04/03 07:15:49;;;;;;;3.72;1.98;;;;;;;-146.04;100.00;56920.13;4962775;28;20196;-73
2024/04/03 07:18:16;;;;;;;3.17;1.77;;;;;;;-146.04;100.00;56920.13;4967865;28;20698;-72
2024/04/03 07:20:41;;;;;;;5.80;2.03;;;;;;;-146.04;100.00;56920.13;4961397;28;20188;-76
2024/04/03 07:23:07;;;;;;;4.40;1.98;;;;;;;-146.04;100.00;56920.13;4962468;28;20207;-74
2024/04/03 07:25:32;;;;;;;4.65;2.15;;;;;;;-146.04;100.00;56920.13;4962002;28;20180;-74
2024/04/03 07:28:10;;;;;;;7.95;2.33;;;;;;;-146.04;100.00;56920.13;4969718;28;20338;-74
2024/04/03 07:30:35;;;;;;;4.85;2.00;;;;;;;-146.04;100.00;56920.13;4967362;28;20180;-74
2024/04/03 07:33:00;;;;;;;4.78;1.58;;;;;;;-146.04;100.00;56920.13;4962735;28;20195;-75
2024/04/03 07:35:26;;;;;;;2.42;1.85;;;;;;;-146.04;100.00;56920.13;4961592;28;20240;-74
2024/04/03 07:37:51;;;;;;;4.78;2.05;;;;;;;-146.04;100.00;56920.13;4971020;28;20239;-74
2024/04/03 07:40:17;;;;;;;5.65;1.60;;;;;;;-146.04;100.00;56920.13;4966516;28;20255;-75
2024/04/03 07:42:44;;;;;;;4.68;1.98;;;;;;;-146.04;100.00;56920.13;4971060;28;20272;-74
2024/04/03 07:45:10;;;;;;;4.82;1.92;;;;;;;-146.04;100.00;56920.13;4955552;28;20258;-75
2024/04/03 07:47:36;;;;;;;4.45;1.80;;;;;;;-146.04;100.00;56920.13;4952474;28;20679;-75
2024/04/03 07:50:07;;;;;;;3.97;1.92;;;;;;;-146.04;100.00;56920.13;4955762;28;20796;-75
2024/04/03 07:52:37;;;;;;;3.63;2.08;;;;;;;-146.04;100.00;56920.13;4953643;28;20678;-74
2024/04/03 07:55:07;;;;;;;3.38;1.95;;;;;;;-146.04;100.00;56920.13;4953862;28;20205;-75
2024/04/03 07:57:34;;;;;;;5.75;2.17;;;;;;;-146.04;100.00;56920.13;4951741;28;20299;-75
2024/04/03 08:00:00;;;;;;;3.88;1.85;;;;;;;-146.04;100.00;56920.13;4954369;28;20235;-76
2024/04/03 08:02:25;;;;;;;3.80;2.30;;;;;;;-146.04;100.00;56920.13;4952371;28;20192;-75
2024/04/03 08:04:51;;;;;;;8.40;3.40;;;;;;;-146.04;100.00;56920.13;4953586;28;20187;-75
2024/04/03 08:07:16;;;;;;;3.40;2.45;;;;;;;-146.04;100.00;56920.13;4951306;28;20220;-75
2024/04/03 08:09:41;;;;;;;7.35;2.20;;;;;;;-146.04;100.00;56920.13;4943371;28;20283;-74
2024/04/03 08:12:07;;;;;;;6.97;2.20;;;;;;;-146.04;100.00;56920.13;4955523;28;20192;-75
2024/04/03 08:14:32;;;;;;;4.45;1.70;;;;;;;-146.04;100.00;56920.13;4952783;28;20211;-76
2024/04/03 08:16:58;;;;;;;5.50;2.25;;;;;;;-146.04;100.00;56920.13;4957855;28;20291;-74
2024/04/03 08:19:23;;;;;;;4.20;1.90;;;;;;;-146.04;100.00;56920.13;4957392;28;20182;-74
2024/04/03 08:21:49;;;;;;;5.38;2.28;;;;;;;-146.04;100.00;56920.13;4964151;28;20196;-75
2024/04/03 08:24:15;;;;;;;2.67;1.98;;;;;;;-146.04;100.00;56920.13;4953539;28;20192;-75
2024/04/03 08:26:40;;;;;;;3.22;2.33;;;;;;;-146.04;100.00;56920.13;4951053;28;20214;-74
2024/04/03 08:29:06;;;;;;;3.85;1.77;;;;;;;-146.04;100.00;56920.13;4953144;28;20198;-75
2024/04/03 08:31:31;;;;;;;7.57;1.88;;;;;;;-146.04;100.00;56920.13;4952182;28;20244;-75
2024/04/03 08:33:59;;;;;;;5.32;2.40;;;;;;;-146.04;100.00;56920.13;4966995;28;20204;-76
2024/04/03 08:36:25;;;;;;;4.93;2.50;;;;;;;-146.04;100.00;56920.13;4978209;28;20917;-76
2024/04/03 08:38:50;;;;;;;3.33;2.75;;;;;;;-146.04;100.00;56920.13;4979366;28;20204;-76
2024/04/03 08:41:16;;;;;;;4.28;2.65;;;;;;;-146.04;100.00;56920.13;4981992;28;20237;-76
2024/04/03 08:43:42;;;;;;;3.00;2.00;;;;;;;-146.04;100.00;56920.13;4960877;28;20195;-75
2024/04/03 08:46:09;;;;;;;5.75;2.20;;;;;;;-146.04;100.00;56920.13;4953229;28;20223;-75
2024/04/03 08:48:37;;;;;;;4.65;2.10;;;;;;;-146.04;100.00;56920.13;4954673;28;20188;-73
2024/04/03 08:51:05;;;;;;;5.20;2.30;;;;;;;-146.04;100.00;56920.13;4953065;28;20276;-72
2024/04/03 08:53:30;;;;;;;3.10;2.60;;;;;;;-146.04;100.00;56920.13;4957879;28;20185;-73
2024/04/03 08:55:56;;;;;;;2.13;1.90;;;;;;;-146.04;100.00;56920.13;4950984;28;20195;-73
2024/04/03 08:58:22;;;;;;;3.88;2.63;;;;;;;-146.04;100.00;56920.13;4952623;28;20259;-75
2024/04/03 09:00:48;;;;;;;3.00;2.30;;;;;;;-146.04;100.00;56920.13;4952222;28;20228;-74
2024/04/03 09:03:14;;;;;;;4.13;2.50;;;;;;;-146.04;100.00;56920.13;4955153;28;20195;-74
2024/04/03 09:05:40;;;;;;;3.67;2.47;;;;;;;-146.04;100.00;56920.13;4951089;28;20789;-74
2024/04/03 09:08:07;;;;;;;6.47;2.63;;;;;;;-146.04;100.00;56920.13;4974705;28;20196;-75
2024/04/03 09:11:17;;;;;;;3.95;2.33;;;;;;;-146.04;100.00;56920.13;4978793;28;20185;-75
2024/04/03 09:13:22;;;;;;;7.93;2.35;;;;;;;-146.04;100.00;56920.13;4953603;28;20204;-75
2024/04/03 09:15:54;;;;;;;3.33;2.50;;;;;;;-146.04;100.00;56920.13;4955995;28;20242;-74
2024/04/03 09:18:21;;;;;;;6.68;2.20;;;;;;;-146.04;100.00;56920.13;4955416;28;20222;-74
2024/04/03 09:20:51;;;;;;;2.90;2.42;;;;;;;-146.04;100.00;56920.13;4951990;28;20187;-74
2024/04/03 09:23:17;;;;;;;3.90;2.65;;;;;;;-146.04;100.00;56920.13;4954544;28;20203;-75
2024/04/03 09:25:42;;;;;;;6.13;2.47;;;;;;;-146.04;100.00;56920.13;4953107;28;20319;-74
2024/04/03 09:28:09;;;;;;;7.47;2.50;;;;;;;-146.04;100.00;56920.13;4951906;28;20211;-75
2024/04/03 09:30:39;;;;;;;7.05;2.88;;;;;;;-146.04;100.00;56920.13;4952498;28;20199;-74
2024/04/03 09:33:05;;;;;;;2.55;2.35;;;;;;;-146.04;100.00;56920.13;4950622;28;21042;-73
2024/04/03 09:35:42;;;;;;;3.53;2.53;;;;;;;-146.04;100.00;56920.13;4951821;28;20807;-74
2024/04/03 09:38:13;;;;;;;3.58;2.72;;;;;;;-146.04;100.00;56920.13;4950879;28;21004;-74
2024/04/03 09:40:40;;;;;;;3.92;2.70;;;;;;;-146.04;100.00;56920.13;4952090;28;20181;-74
2024/04/03 09:43:12;;;;;;;4.07;2.75;;;;;;;-146.04;100.00;56920.13;4954782;28;20199;-73
2024/04/03 09:45:38;;;;;;;4.25;2.88;;;;;;;-146.04;100.00;56920.13;4955189;28;20683;-73
2024/04/03 09:48:08;;;;;;;3.25;2.47;;;;;;;-146.04;100.00;56920.13;4957727;28;20230;-71
2024/04/03 09:50:44;;;;;;;4.45;2.97;;;;;;;-146.04;100.00;56920.13;4956638;28;20618;-74
2024/04/03 09:53:14;;;;;;;3.85;2.80;;;;;;;-146.04;100.00;56920.13;4954749;28;20192;-74
2024/04/03 09:55:40;;;;;;;4.82;2.88;;;;;;;-146.04;100.00;56920.13;4955383;28;20212;-74
2024/04/03 09:58:10;;;;;;;5.30;2.92;;;;;;;-146.04;100.00;56920.13;4955835;28;20211;-73
2024/04/03 10:00:40;;;;;;;5.25;3.65;;;;;;;-146.04;100.00;56920.13;4954424;28;20243;-74
2024/04/03 10:03:20;;;;;;;5.10;2.85;;;;;;;-146.04;100.00;56920.13;4954663;28;20192;-73
2024/04/03 10:05:45;;;;;;;3.35;2.72;;;;;;;-146.04;100.00;56920.13;4956586;28;20192;-73
2024/04/03 10:08:12;;;;;;;4.25;2.97;;;;;;;-146.04;100.00;56920.13;4953449;28;20329;-74
2024/04/03 10:10:45;;;;;;;5.43;3.15;;;;;;;-146.04;100.00;56920.13;4956275;28;20199;-74
2024/04/03 10:13:24;;;;;;;3.55;2.97;;;;;;;-146.04;100.00;56920.13;4955972;28;20181;-74
2024/04/03 10:16:03;;;;;;;2.88;2.67;;;;;;;-146.04;100.00;56920.13;4954691;28;20216;-73
2024/04/03 10:18:33;;;;;;;7.53;3.30;;;;;;;-146.04;100.00;56920.13;4957346;28;20192;-73
2024/04/03 10:21:00;;;;;;;3.55;2.85;;;;;;;-146.04;100.00;56920.13;4954583;28;20235;-74
2024/04/03 10:23:25;;;;;;;4.43;3.30;;;;;;;-146.04;100.00;56920.13;4954637;28;20538;-73
2024/04/03 10:25:52;;;;;;;4.70;2.85;;;;;;;-146.04;100.00;56920.13;4955273;28;20188;-75
2024/04/03 10:28:18;;;;;;;3.67;2.95;;;;;;;-146.04;100.00;56920.13;4953755;28;20262;-74
2024/04/03 10:30:44;;;;;;;3.28;2.55;;;;;;;-146.04;100.00;56920.13;4955928;28;20200;-74
2024/04/03 10:33:11;;;;;;;6.18;2.90;;;;;;;-146.04;100.00;56920.13;4955865;28;20188;-74
2024/04/03 10:35:36;;;;;;;4.60;3.05;;;;;;;-146.04;100.00;56920.13;4956111;28;20976;-75
2024/04/03 10:38:02;;;;;;;4.32;2.70;;;;;;;-146.04;100.00;56920.13;4954729;28;20212;-75
2024/04/03 10:40:29;;;;;;;5.53;2.75;;;;;;;-146.04;100.00;56920.13;4954793;28;20184;-74
2024/04/03 10:42:55;;;;;;;2.85;2.40;;;;;;;-146.04;100.00;56920.13;4956295;28;20180;-73
2024/04/03 10:45:20;;;;;;;6.78;3.30;;;;;;;-146.04;100.00;56920.13;4958785;28;20550;-74
2024/04/03 10:47:49;;;;;;;2.95;2.42;;;;;;;-146.04;100.00;56920.13;4956503;28;20610;-74
2024/04/03 10:50:15;;;;;;;4.03;2.72;;;;;;;-146.04;100.00;56920.13;4955275;28;20651;-73
2024/04/03 10:52:41;;;;;;;3.38;2.75;;;;;;;-146.04;100.00;56920.13;4952871;28;20187;-74
2024/04/03 10:55:07;;;;;;;4.63;3.03;;;;;;;-146.04;100.00;56920.13;4953363;28;20651;-73
2024/04/03 10:57:32;;;;;;;3.88;2.30;;;;;;;-146.04;100.00;56920.13;4953310;28;20979;-71
2024/04/03 10:59:57;;;;;;;4.63;3.03;;;;;;;-146.04;100.00;56920.13;4953412;28;20197;-73
2024/04/03 11:02:23;;;;;;;3.15;2.60;;;;;;;-146.04;100.00;56920.13;4953586;28;20213;-73
2024/04/03 11:04:49;;;;;;;6.38;2.80;;;;;;;-146.04;100.00;56920.13;4957313;28;20545;-75
2024/04/03 11:07:14;;;;;;;7.35;3.08;;;;;;;-146.04;100.00;56920.13;4954609;28;20368;-73
2024/04/03 11:09:40;;;;;;;5.03;2.80;;;;;;;-146.04;100.00;56920.13;4952486;28;20287;-74
2024/04/03 11:12:17;;;;;;;6.80;2.75;;;;;;;-146.04;100.00;56920.13;4957915;28;20191;-73